Time;durP1;ratioP1;P1;durP2;ratioP2;P2;SDS_P1;SDS_P2;PMS_P1;PMS_P2;Temp;Humidity;BMP_temperature;BMP_pressure;BME280_temperature;BME280_humidity;BME280_pressure;Samples;Min_cycle;Max_cycle;Signal;HPM_P1;HPM_P2
2022/06/19 00:01:49;;;;;;;;;0.00;0.00;;;;;27.39;50.41;100112.34;5109756;27;70365;-53
2022/06/19 00:04:15;;;;;;;;;0.00;0.00;;;;;27.40;50.38;100114.03;5110359;27;47675;-56
2022/06/19 00:06:42;;;;;;;;;0.00;0.00;;;;;27.40;50.55;100120.25;5103635;27;45397;-55
2022/06/19 00:09:07;;;;;;;;;2.00;0.00;;;;;27.40;49.87;100117.56;5090615;27;45679;-56
2022/06/19 00:11:34;;;;;;;;;0.25;0.00;;;;;27.42;50.37;100112.03;5107942;27;46215;-54
2022/06/19 00:14:00;;;;;;;;;0.00;0.00;;;;;27.43;50.14;100135.22;5101402;27;45598;-54
2022/06/19 00:16:25;;;;;;;;;0.00;0.00;;;;;27.40;49.57;100136.38;5103879;27;45555;-58
2022/06/19 00:18:51;;;;;;;;;0.00;0.00;;;;;27.45;49.79;100168.13;5108235;27;45439;-56
2022/06/19 00:21:17;;;;;;;;;0.25;0.00;;;;;27.45;50.30;100176.19;5100695;27;47815;-54
2022/06/19 00:23:44;;;;;;;;;0.00;0.00;;;;;27.46;49.90;100197.53;5087707;27;45663;-54
2022/06/19 00:26:10;;;;;;;;;0.00;0.00;;;;;27.46;49.82;100204.72;5107006;27;45423;-54
2022/06/19 00:28:35;;;;;;;;;0.00;0.00;;;;;27.48;49.74;100169.63;5110829;27;46189;-54
2022/06/19 00:31:00;;;;;;;;;1.75;0.00;;;;;27.47;50.10;100193.00;5103500;27;66388;-54
2022/06/19 00:33:26;;;;;;;;;0.00;0.00;;;;;27.49;49.91;100192.84;5106475;27;75807;-55
2022/06/19 00:35:51;;;;;;;;;0.00;0.00;;;;;27.48;50.05;100196.50;5099401;27;45578;-55
2022/06/19 00:38:17;;;;;;;;;0.00;0.00;;;;;27.49;49.69;100168.66;5110987;27;70418;-55
2022/06/19 00:40:42;;;;;;;;;0.00;0.00;;;;;27.49;49.82;100174.03;5104647;27;67706;-55
2022/06/19 00:43:07;;;;;;;;;1.00;0.00;;;;;27.50;50.12;100178.38;5107304;27;55869;-55
2022/06/19 00:45:39;;;;;;;;;0.00;0.00;;;;;27.51;49.94;100158.56;5106687;27;45666;-54
2022/06/19 00:48:19;;;;;;;;;0.00;0.00;;;;;27.49;49.47;100174.84;5108555;27;45218;-55
2022/06/19 00:50:46;;;;;;;;;0.00;0.00;;;;;27.49;49.60;100161.41;5110169;27;45426;-54
2022/06/19 00:53:16;;;;;;;;;0.00;0.00;;;;;27.50;49.96;100176.53;5108339;27;45551;-53
2022/06/19 00:55:45;;;;;;;;;2.50;0.00;;;;;27.49;49.81;100190.97;5104756;27;45483;-55
2022/06/19 00:58:18;;;;;;;;;3.00;0.00;;;;;27.49;49.98;100214.34;5099716;27;45432;-55
2022/06/19 01:00:50;;;;;;;;;0.00;0.00;;;;;27.50;49.19;100214.16;5101349;27;45546;-53
2022/06/19 01:03:19;;;;;;;;;0.00;0.00;;;;;27.50;49.57;100222.22;5102124;27;45485;-55
2022/06/19 01:05:46;;;;;;;;;0.25;0.25;;;;;27.49;49.69;100223.22;5101506;27;45452;-55
2022/06/19 01:08:12;;;;;;;;;0.00;0.00;;;;;27.47;49.56;100236.00;5100468;27;45510;-55
2022/06/19 01:10:40;;;;;;;;;0.00;0.00;;;;;27.49;49.79;100242.03;5112683;27;46457;-53
2022/06/19 01:13:07;;;;;;;;;3.75;3.25;;;;;27.49;48.14;100239.34;5116939;27;45678;-58
2022/06/19 01:15:33;;;;;;;;;4.75;4.75;;;;;27.37;46.81;100236.13;5107034;27;45787;-60
2022/06/19 01:18:04;;;;;;;;;10.25;9.00;;;;;27.22;46.08;100218.94;5099067;27;45549;-60
2022/06/19 01:20:32;;;;;;;;;9.50;7.00;;;;;27.05;45.74;100231.44;5106764;27;45573;-60
2022/06/19 01:23:16;;;;;;;;;11.00;5.00;;;;;26.91;45.71;100227.50;5103678;27;45797;-60
2022/06/19 01:25:42;;;;;;;;;7.75;6.25;;;;;26.78;45.45;100216.38;5106206;27;45311;-60
2022/06/19 01:30:59;;;;;;;;;10.75;9.00;;;;;26.44;44.93;100207.25;5103242;27;45407;-60
2022/06/19 01:33:31;;;;;;;;;15.50;9.50;;;;;26.31;44.86;100226.44;5110134;27;45839;-60
2022/06/19 01:35:57;;;;;;;;;8.25;7.25;;;;;26.23;45.03;100225.53;5108326;27;45635;-59
2022/06/19 01:38:24;;;;;;;;;10.00;7.00;;;;;26.11;44.97;100238.34;5106055;27;45256;-60
2022/06/19 01:40:57;;;;;;;;;10.00;7.75;;;;;26.01;44.83;100237.56;5107106;27;56101;-59
2022/06/19 01:43:22;;;;;;;;;9.00;7.50;;;;;25.91;44.64;100241.16;5109777;27;45464;-60
2022/06/19 01:45:55;;;;;;;;;6.75;6.25;;;;;25.83;44.48;100241.06;5104520;27;67459;-60
2022/06/19 01:48:21;;;;;;;;;11.75;8.00;;;;;25.72;44.67;100260.06;5093731;27;45620;-59
2022/06/19 01:50:47;;;;;;;;;10.00;9.00;;;;;25.61;44.57;100228.97;5104535;27;45497;-60
2022/06/19 01:53:25;;;;;;;;;14.75;8.25;;;;;25.53;44.48;100228.88;5107467;27;45458;-60
2022/06/19 01:55:51;;;;;;;;;14.00;8.00;;;;;25.47;44.83;100227.63;5106725;27;45391;-60
2022/06/19 01:58:17;;;;;;;;;14.25;10.25;;;;;25.41;44.69;100214.00;5104399;27;45583;-59
2022/06/19 02:00:45;;;;;;;;;13.75;9.00;;;;;25.30;44.61;100181.09;5104959;27;45497;-60
2022/06/19 02:03:22;;;;;;;;;8.50;7.75;;;;;25.26;44.91;100177.00;5110675;27;45800;-60
2022/06/19 02:05:48;;;;;;;;;10.00;8.50;;;;;25.19;44.39;100197.31;5110834;27;45433;-59
2022/06/19 02:08:15;;;;;;;;;10.25;7.50;;;;;25.15;44.57;100223.56;5092882;27;45601;-59
2022/06/19 02:10:41;;;;;;;;;10.75;8.25;;;;;25.03;44.65;100230.09;5109966;27;59719;-59
2022/06/19 02:13:08;;;;;;;;;12.50;8.50;;;;;25.01;44.34;100261.53;5112311;27;45677;-59
2022/06/19 02:15:35;;;;;;;;;11.75;9.25;;;;;24.93;44.38;100267.63;5108561;27;45384;-59
2022/06/19 02:18:01;;;;;;;;;10.25;7.00;;;;;24.89;44.29;100284.09;5101302;27;45646;-59
2022/06/19 02:20:27;;;;;;;;;11.50;8.50;;;;;24.86;44.52;100300.44;5112503;27;48695;-60
2022/06/19 02:22:52;;;;;;;;;11.75;8.25;;;;;24.83;44.45;100296.25;5114204;27;45432;-60
2022/06/19 02:25:18;;;;;;;;;8.75;6.00;;;;;24.80;44.43;100299.19;5110008;27;45325;-59
2022/06/19 02:27:44;;;;;;;;;8.50;6.50;;;;;24.76;44.68;100287.09;5105912;27;52638;-60
2022/06/19 02:30:12;;;;;;;;;9.75;7.00;;;;;24.73;44.40;100296.25;5107638;27;45533;-59
2022/06/19 02:32:40;;;;;;;;;6.75;6.00;;;;;24.70;44.33;100293.88;5110587;27;45751;-60
2022/06/19 02:35:09;;;;;;;;;7.25;6.00;;;;;24.69;44.42;100275.28;5105132;27;45274;-59
2022/06/19 02:37:41;;;;;;;;;9.00;7.00;;;;;24.66;44.19;100292.47;5104248;27;45544;-59
2022/06/19 02:40:19;;;;;;;;;8.25;7.00;;;;;24.62;44.32;100315.16;5114690;27;45599;-59
2022/06/19 02:42:47;;;;;;;;;7.50;5.75;;;;;24.59;44.46;100308.25;5119436;27;45375;-59
2022/06/19 02:45:19;;;;;;;;;6.00;6.00;;;;;24.58;44.65;100298.53;5114863;27;45314;-60
2022/06/19 02:47:45;;;;;;;;;7.25;7.00;;;;;24.57;44.36;100302.19;5105180;27;45913;-59
2022/06/19 02:50:23;;;;;;;;;8.75;5.75;;;;;24.57;44.49;100312.06;5105452;27;45444;-59
2022/06/19 02:52:49;;;;;;;;;10.50;7.00;;;;;24.55;44.54;100421.88;5111787;27;46370;-59
2022/06/19 02:55:14;;;;;;;;;8.75;6.25;;;;;24.58;44.65;100590.19;5103775;27;60396;-59
2022/06/19 02:57:40;;;;;;;;;11.00;6.50;;;;;24.58;44.42;100482.31;5106458;27;45250;-59
2022/06/19 03:00:09;;;;;;;;;10.75;8.00;;;;;24.56;44.39;100425.41;5110918;27;47637;-59
2022/06/19 03:02:35;;;;;;;;;8.75;7.25;;;;;24.54;44.60;100503.16;5103057;27;45449;-59
2022/06/19 03:05:03;;;;;;;;;10.25;8.00;;;;;24.51;44.35;100503.38;5102975;27;69203;-59
2022/06/19 03:07:29;;;;;;;;;10.75;7.75;;;;;24.47;44.43;100495.75;5110855;27;45430;-59
2022/06/19 03:09:54;;;;;;;;;10.75;8.00;;;;;24.49;44.40;100505.34;5105809;27;45615;-58
2022/06/19 03:12:20;;;;;;;;;9.50;8.00;;;;;24.47;44.28;100474.34;5103709;27;45475;-59
2022/06/19 03:14:45;;;;;;;;;13.25;7.25;;;;;24.44;44.17;100446.91;5100562;27;45350;-58
2022/06/19 03:17:21;;;;;;;;;11.75;6.25;;;;;24.42;44.28;100496.19;5102839;27;45366;-58
2022/06/19 03:19:46;;;;;;;;;11.50;7.00;;;;;24.39;44.13;100421.56;5108649;27;45578;-58
2022/06/19 03:22:12;;;;;;;;;9.75;5.25;;;;;24.37;44.44;100453.78;5108206;27;45378;-58
2022/06/19 03:24:38;;;;;;;;;7.25;5.00;;;;;24.36;44.34;100409.28;5115811;27;45485;-58
2022/06/19 03:27:04;;;;;;;;;9.25;4.75;;;;;24.34;43.92;100483.47;5103634;27;45323;-58
2022/06/19 03:29:30;;;;;;;;;10.00;7.75;;;;;24.31;44.51;100490.94;5112587;27;45452;-57
2022/06/19 03:31:55;;;;;;;;;8.00;6.75;;;;;24.30;44.48;100446.47;5102876;27;45516;-57
2022/06/19 03:34:20;;;;;;;;;9.50;6.50;;;;;24.25;44.55;100426.31;5101331;27;53840;-57
2022/06/19 03:36:46;;;;;;;;;11.25;8.50;;;;;24.24;44.40;100447.84;5108127;27;56706;-57
2022/06/19 03:39:11;;;;;;;;;13.00;7.00;;;;;24.21;44.51;100440.94;5110784;27;45304;-57
2022/06/19 03:41:37;;;;;;;;;10.75;7.25;;;;;24.18;44.30;100445.72;5101746;27;66830;-58
2022/06/19 03:44:03;;;;;;;;;8.25;8.25;;;;;24.15;44.42;100440.66;5105318;27;45418;-57
2022/06/19 03:46:29;;;;;;;;;11.50;7.00;;;;;24.12;43.77;100448.97;5115899;27;45787;-57
2022/06/19 03:48:54;;;;;;;;;12.00;8.00;;;;;24.09;44.14;100467.94;5111115;27;47197;-57
2022/06/19 03:51:23;;;;;;;;;7.00;5.00;;;;;24.04;44.58;100471.84;5110795;27;50338;-57
2022/06/19 03:53:50;;;;;;;;;8.25;8.00;;;;;24.03;44.52;100486.22;5111894;27;45318;-57
2022/06/19 03:56:19;;;;;;;;;9.25;7.75;;;;;24.00;44.16;100448.22;5104663;27;45356;-58
2022/06/19 03:58:47;;;;;;;;;11.75;10.00;;;;;23.99;44.26;100414.44;5108688;27;46488;-58
2022/06/19 04:01:18;;;;;;;;;10.75;9.00;;;;;23.97;44.19;100422.59;5104875;27;45389;-57
2022/06/19 04:03:45;;;;;;;;;7.00;5.75;;;;;23.94;44.20;100416.66;5103626;27;45540;-57
2022/06/19 04:06:12;;;;;;;;;11.25;10.00;;;;;23.91;44.28;100433.84;5101581;27;45494;-57
2022/06/19 04:08:38;;;;;;;;;12.25;9.50;;;;;23.90;44.00;100471.38;5106715;27;46297;-57
2022/06/19 04:11:05;;;;;;;;;11.25;10.00;;;;;23.84;44.34;100527.06;5107227;27;45425;-58
2022/06/19 04:13:33;;;;;;;;;13.25;10.25;;;;;23.80;44.28;100599.59;5105025;27;46747;-57
2022/06/19 04:15:58;;;;;;;;;11.00;8.00;;;;;23.77;44.35;100619.38;5105743;27;45613;-58
2022/06/19 04:18:23;;;;;;;;;10.00;8.75;;;;;23.76;44.02;100470.75;5107916;27;70083;-58
2022/06/19 04:20:48;;;;;;;;;15.50;11.75;;;;;23.71;44.52;100328.69;5111511;27;45413;-58
2022/06/19 04:23:14;;;;;;;;;10.75;9.25;;;;;23.74;44.57;100314.19;5104778;27;57142;-56
2022/06/19 04:25:43;;;;;;;;;12.00;9.75;;;;;23.73;44.44;100309.81;5109043;27;45327;-57
2022/06/19 04:28:09;;;;;;;;;14.50;10.50;;;;;23.71;44.58;100342.03;5104645;27;46104;-57
2022/06/19 04:30:35;;;;;;;;;9.00;8.00;;;;;23.67;44.78;100375.34;5111433;27;46043;-57
2022/06/19 04:33:01;;;;;;;;;13.00;9.50;;;;;23.65;45.35;100396.84;5102408;27;45428;-57
2022/06/19 04:35:26;;;;;;;;;9.00;8.50;;;;;23.63;44.93;100363.25;5104458;27;69888;-57
2022/06/19 04:37:53;;;;;;;;;12.50;9.00;;;;;23.63;45.01;100353.38;5106503;27;46172;-57
2022/06/19 04:40:18;;;;;;;;;12.50;8.75;;;;;23.63;45.42;100356.06;5106664;27;45431;-57
2022/06/19 04:42:43;;;;;;;;;10.00;8.50;;;;;23.61;45.18;100392.75;5106783;27;45811;-56
2022/06/19 04:45:10;;;;;;;;;8.50;6.25;;;;;23.61;45.64;100435.50;5105151;27;70222;-57
2022/06/19 04:47:35;;;;;;;;;13.00;7.50;;;;;23.63;45.06;100384.59;5100290;27;45579;-61
2022/06/19 04:50:00;;;;;;;;;8.50;6.00;;;;;23.64;45.23;100418.38;5107466;27;58847;-57
2022/06/19 04:52:26;;;;;;;;;8.00;5.75;;;;;23.62;45.40;100388.25;5106386;27;64731;-57
2022/06/19 04:54:51;;;;;;;;;8.00;5.75;;;;;23.61;45.41;100335.81;5109630;27;46097;-57
2022/06/19 04:57:16;;;;;;;;;9.75;6.00;;;;;23.62;45.05;100362.41;5104924;27;46343;-58
2022/06/19 04:59:43;;;;;;;;;7.00;5.50;;;;;23.62;45.61;100358.88;5102569;27;63986;-58
2022/06/19 05:02:12;;;;;;;;;7.50;6.00;;;;;23.60;45.11;100359.03;5111593;27;45443;-58
2022/06/19 05:04:37;;;;;;;;;7.00;5.50;;;;;23.61;44.97;100341.16;5106607;27;45354;-58
2022/06/19 05:07:03;;;;;;;;;11.50;5.25;;;;;23.61;45.27;100389.25;5108282;27;46208;-58
2022/06/19 05:09:28;;;;;;;;;8.00;6.75;;;;;23.53;45.45;100383.72;5107582;27;45274;-58
2022/06/19 05:11:53;;;;;;;;;8.25;7.50;;;;;23.54;45.12;100399.63;5100637;27;57955;-58
2022/06/19 05:14:19;;;;;;;;;10.25;5.25;;;;;23.53;45.13;100407.75;5111108;27;70974;-58
2022/06/19 05:16:44;;;;;;;;;7.00;5.00;;;;;23.49;45.38;100432.06;5113287;27;63895;-58
2022/06/19 05:19:10;;;;;;;;;7.00;5.00;;;;;23.47;45.60;100446.53;5112325;27;45680;-58
2022/06/19 05:21:35;;;;;;;;;8.50;6.75;;;;;23.42;45.57;100390.00;5111173;27;45449;-58
2022/06/19 05:24:01;;;;;;;;;6.50;6.00;;;;;23.41;45.39;100324.19;5099820;27;45599;-58
2022/06/19 05:26:30;;;;;;;;;5.75;4.00;;;;;23.40;45.70;100298.50;5105765;27;46962;-58
2022/06/19 05:28:57;;;;;;;;;6.25;4.50;;;;;23.41;45.98;100317.06;5103531;27;45543;-58
2022/06/19 05:31:23;;;;;;;;;7.00;4.00;;;;;23.39;45.66;100289.66;5102121;27;45513;-58
2022/06/19 05:33:49;;;;;;;;;6.00;3.50;;;;;23.36;45.60;100215.13;5103535;27;45515;-58
2022/06/19 05:36:15;;;;;;;;;8.00;4.00;;;;;23.33;45.60;100151.31;5104527;27;45866;-57
2022/06/19 05:38:41;;;;;;;;;6.00;3.25;;;;;23.31;45.94;100230.72;5107104;27;45869;-57
2022/06/19 05:41:06;;;;;;;;;58.50;47.75;;;;;23.27;46.04;100251.50;5103305;27;65321;-57
2022/06/19 05:43:34;;;;;;;;;128.25;112.25;;;;;23.22;45.70;100290.28;5109122;27;45503;-57
2022/06/19 05:46:02;;;;;;;;;233.00;190.75;;;;;23.20;45.65;100327.78;5109855;27;46202;-57
2022/06/19 05:48:29;;;;;;;;;174.25;154.25;;;;;23.18;46.08;100348.44;5106449;27;46106;-57
2022/06/19 05:51:03;;;;;;;;;105.25;87.00;;;;;23.16;46.00;100354.84;5113467;27;45542;-57
2022/06/19 05:53:29;;;;;;;;;64.00;48.00;;;;;23.18;46.02;100345.75;5111812;27;45661;-57
2022/06/19 05:55:55;;;;;;;;;166.75;140.50;;;;;23.18;45.68;100326.19;5103365;27;46259;-57
2022/06/19 05:58:20;;;;;;;;;214.75;180.50;;;;;23.13;45.66;100300.75;5104655;27;45344;-57
2022/06/19 06:00:46;;;;;;;;;399.50;310.75;;;;;23.13;45.74;100279.41;5111453;27;45546;-57
2022/06/19 06:03:16;;;;;;;;;321.00;247.25;;;;;23.13;45.56;100241.22;5110672;27;45609;-57
2022/06/19 06:05:43;;;;;;;;;202.50;165.00;;;;;23.11;46.10;100195.97;5106593;27;46811;-57
2022/06/19 06:08:09;;;;;;;;;278.75;212.50;;;;;23.09;45.92;100195.25;5114823;27;45648;-57
2022/06/19 06:10:34;;;;;;;;;107.75;88.75;;;;;23.10;45.71;100212.09;5104303;27;47279;-57
2022/06/19 06:13:00;;;;;;;;;95.50;80.50;;;;;23.10;45.45;100198.75;5103722;27;45433;-57
2022/06/19 06:15:25;;;;;;;;;162.00;139.67;;;;;23.07;45.40;100169.66;5109570;27;64890;-57
2022/06/19 06:17:50;;;;;;;;;228.67;187.00;;;;;23.07;45.92;100151.84;5104898;27;72985;-57
2022/06/19 06:20:16;;;;;;;;;130.00;104.67;;;;;23.07;45.48;100175.88;5103310;27;68345;-56
2022/06/19 06:22:41;;;;;;;;;43.75;30.75;;;;;23.05;45.61;100262.38;5108923;27;68641;-57
2022/06/19 06:25:07;;;;;;;;;41.00;32.25;;;;;23.00;45.72;100299.25;5112847;27;74502;-57
2022/06/19 06:27:32;;;;;;;;;74.75;52.75;;;;;22.95;45.19;100321.03;5113063;27;45412;-57
2022/06/19 06:29:57;;;;;;;;;72.25;54.25;;;;;22.92;45.63;100371.97;5113546;27;45460;-57
2022/06/19 06:32:23;;;;;;;;;45.75;32.00;;;;;22.90;45.48;100400.63;5109378;27;66866;-56
2022/06/19 06:34:49;;;;;;;;;19.00;13.75;;;;;22.81;45.55;100423.56;5111711;27;47536;-57
2022/06/19 06:37:15;;;;;;;;;71.75;52.00;;;;;22.73;46.06;100296.19;5105772;27;45798;-57
2022/06/19 06:39:40;;;;;;;;;71.00;51.75;;;;;22.62;46.09;100380.75;5111374;27;45550;-56
2022/06/19 06:42:06;;;;;;;;;52.25;36.50;;;;;22.61;45.94;100461.72;5111529;27;56011;-57
2022/06/19 06:44:31;;;;;;;;;19.75;17.50;;;;;22.53;46.82;100348.53;5110793;27;45565;-56
2022/06/19 06:46:56;;;;;;;;;10.50;8.00;;;;;22.51;46.69;100353.13;5104947;27;45310;-57
2022/06/19 06:49:22;;;;;;;;;16.75;10.00;;;;;22.52;46.36;100359.31;5106719;27;57664;-53
2022/06/19 06:51:48;;;;;;;;;6.00;4.75;;;;;22.53;46.91;100385.03;5097788;27;45619;-52
2022/06/19 06:54:13;;;;;;;;;8.50;7.50;;;;;22.59;46.75;100324.97;5105410;27;45386;-53
2022/06/19 06:56:38;;;;;;;;;12.25;6.75;;;;;22.63;47.29;100268.59;5103365;27;45327;-51
2022/06/19 06:59:04;;;;;;;;;6.00;5.50;;;;;22.71;47.23;100257.25;5109233;27;45526;-50
2022/06/19 07:01:30;;;;;;;;;7.25;5.00;;;;;22.79;47.07;100209.44;5107559;27;45677;-53
2022/06/19 07:03:55;;;;;;;;;8.25;4.25;;;;;22.86;47.01;100172.38;5105478;27;46477;-52
2022/06/19 07:06:26;;;;;;;;;8.75;5.00;;;;;22.91;47.35;100199.50;5102191;27;45347;-53
2022/06/19 07:08:52;;;;;;;;;3.00;3.00;;;;;22.95;47.15;100214.28;5100197;27;46076;-54
2022/06/19 07:11:22;;;;;;;;;5.75;5.50;;;;;23.03;47.56;100238.44;5106623;27;45907;-54
2022/06/19 07:13:48;;;;;;;;;4.00;2.25;;;;;23.08;47.30;100270.97;5102161;27;45491;-54
2022/06/19 07:16:13;;;;;;;;;4.50;4.00;;;;;23.13;47.52;100326.63;5106097;27;45645;-55
2022/06/19 07:18:39;;;;;;;;;4.50;3.00;;;;;23.18;47.40;100369.78;5101740;27;45343;-53
2022/06/19 07:21:04;;;;;;;;;5.75;2.75;;;;;23.23;47.32;100372.03;5105054;27;53428;-53
2022/06/19 07:23:29;;;;;;;;;3.00;3.00;;;;;23.26;47.25;100353.09;5099720;27;48196;-55
2022/06/19 07:25:55;;;;;;;;;2.75;2.00;;;;;23.31;47.30;100391.75;5114646;27;45438;-54
2022/06/19 07:28:20;;;;;;;;;4.00;2.00;;;;;23.34;47.40;100388.00;5103417;27;45305;-53
2022/06/19 07:30:46;;;;;;;;;2.00;1.75;;;;;23.36;47.28;100394.03;5103930;27;45716;-54
2022/06/19 07:33:12;;;;;;;;;1.00;1.00;;;;;23.42;47.17;100398.84;5114152;27;63748;-54
2022/06/19 07:35:37;;;;;;;;;3.50;1.25;;;;;23.45;47.57;100478.72;5105271;27;45696;-53
2022/06/19 07:38:03;;;;;;;;;0.50;0.25;;;;;23.47;47.39;100572.91;5103574;27;45648;-52
2022/06/19 07:40:28;;;;;;;;;3.50;0.75;;;;;23.52;47.18;100555.66;5103418;27;64311;-54
2022/06/19 07:42:53;;;;;;;;;1.00;1.00;;;;;23.51;47.65;100509.38;5107901;27;46236;-53
2022/06/19 07:45:19;;;;;;;;;1.00;1.00;;;;;23.57;47.32;100502.66;5098888;27;45459;-54
2022/06/19 07:50:28;;;;;;;;;2.00;0.25;;;;;23.64;47.36;100503.88;5103174;27;46112;-54
2022/06/19 07:52:54;;;;;;;;;2.00;1.00;;;;;23.66;47.35;100486.72;5097661;27;46179;-54
2022/06/19 07:55:30;;;;;;;;;1.25;0.75;;;;;23.68;47.31;100482.06;5100060;27;45464;-53
2022/06/19 07:57:58;;;;;;;;;1.25;1.25;;;;;23.72;47.10;100477.31;5115329;27;45387;-53
2022/06/19 08:00:27;;;;;;;;;1.50;0.50;;;;;23.75;47.23;100468.19;5103964;27;45327;-54
2022/06/19 08:02:53;;;;;;;;;2.50;1.00;;;;;23.75;47.22;100551.88;5099220;27;46365;-52
2022/06/19 08:05:20;;;;;;;;;1.00;0.50;;;;;23.79;47.12;100659.34;5102906;27;45395;-52
2022/06/19 08:07:50;;;;;;;;;0.00;0.00;;;;;23.82;46.91;100672.50;5101226;27;45359;-54
2022/06/19 08:10:20;;;;;;;;;2.00;0.00;;;;;23.83;47.33;100545.88;5100491;27;45354;-54
2022/06/19 08:12:46;;;;;;;;;0.00;0.00;;;;;23.85;46.88;100536.78;5103163;27;46071;-52
2022/06/19 08:15:12;;;;;;;;;1.00;0.75;;;;;23.86;47.15;100538.44;5105854;27;45572;-52
2022/06/19 08:17:38;;;;;;;;;2.75;0.00;;;;;23.88;47.25;100493.72;5105214;27;45290;-50
2022/06/19 08:20:03;;;;;;;;;0.25;0.00;;;;;23.91;46.77;100465.91;5104456;27;64969;-54
2022/06/19 08:22:29;;;;;;;;;0.50;0.00;;;;;23.93;47.16;100445.22;5107325;27;47386;-54
2022/06/19 08:24:54;;;;;;;;;0.75;0.00;;;;;23.95;46.77;100445.94;5101310;27;56995;-52
2022/06/19 08:27:20;;;;;;;;;0.00;0.00;;;;;23.97;47.01;100427.94;5105661;27;45435;-54
2022/06/19 08:29:45;;;;;;;;;0.00;0.00;;;;;24.01;47.05;100436.53;5101533;27;45378;-52
2022/06/19 08:32:10;;;;;;;;;0.00;0.00;;;;;24.04;46.76;100449.63;5104524;27;46237;-53
2022/06/19 08:34:36;;;;;;;;;0.75;0.00;;;;;24.04;46.61;100426.41;5109224;27;71999;-53
2022/06/19 08:37:04;;;;;;;;;0.00;0.00;;;;;24.07;46.40;100412.78;5104942;27;45353;-51
2022/06/19 08:39:30;;;;;;;;;0.00;0.00;;;;;24.07;46.76;100402.06;5108025;27;45519;-53
2022/06/19 08:42:24;;;;;;;;;0.00;0.00;;;;;24.11;46.19;100380.41;5108486;27;57455;-52
2022/06/19 08:45:01;;;;;;;;;2.00;0.00;;;;;24.11;46.47;100359.03;5112532;27;45437;-52
2022/06/19 08:47:41;;;;;;;;;0.00;0.00;;;;;24.14;46.37;100356.09;5107083;27;45349;-49
2022/06/19 08:50:34;;;;;;;;;0.00;0.00;;;;;24.16;46.37;100364.81;5101285;27;45228;-54
2022/06/19 08:53:14;;;;;;;;;0.00;0.00;;;;;24.16;46.35;100348.78;5104629;27;46355;-54
2022/06/19 08:55:46;;;;;;;;;0.00;0.00;;;;;24.16;46.27;100316.69;5107210;27;45396;-51
2022/06/19 08:58:29;;;;;;;;;0.00;0.00;;;;;24.18;46.77;100342.28;5112274;27;45298;-54
2022/06/19 09:01:13;;;;;;;;;0.00;0.00;;;;;24.20;46.33;100371.56;5101581;27;45436;-52
2022/06/19 09:06:52;;;;;;;;;0.00;0.00;;;;;24.22;46.35;100362.44;5103458;27;45630;-51
2022/06/19 09:10:07;;;;;;;;;0.25;0.00;;;;;24.24;46.38;100383.66;5100480;27;45342;-53
2022/06/19 09:12:42;;;;;;;;;0.00;0.00;;;;;24.26;46.32;100389.75;5105870;27;45358;-53
2022/06/19 09:15:12;;;;;;;;;0.00;0.00;;;;;24.28;46.24;100403.81;5110703;27;45443;-52
2022/06/19 09:18:28;;;;;;;;;1.00;0.00;;;;;24.31;45.95;100446.34;5104697;27;45613;-54
2022/06/19 09:21:11;;;;;;;;;0.00;0.00;;;;;24.33;46.25;100463.09;5097371;27;45660;-53
2022/06/19 09:23:46;;;;;;;;;1.75;0.00;;;;;24.34;46.21;100466.59;5104350;27;45298;-52
2022/06/19 09:26:21;;;;;;;;;0.50;0.00;;;;;24.35;46.12;100479.84;5108213;27;46152;-53
2022/06/19 09:28:56;;;;;;;;;1.75;0.00;;;;;24.39;46.17;100491.09;5111508;27;45732;-53
2022/06/19 09:31:29;;;;;;;;;2.50;0.00;;;;;24.40;46.14;100484.75;5109730;27;45394;-53
2022/06/19 09:34:01;;;;;;;;;0.00;0.00;;;;;24.40;46.12;100487.44;5113039;27;45279;-54
2022/06/19 09:36:32;;;;;;;;;3.00;0.00;;;;;24.43;46.16;100497.88;5111372;27;46174;-54
2022/06/19 09:39:21;;;;;;;;;1.75;1.00;;;;;24.45;46.11;100501.25;5112612;27;45684;-52
2022/06/19 09:41:56;;;;;;;;;0.00;0.00;;;;;24.47;46.07;100495.75;5107201;27;45349;-51
2022/06/19 09:44:40;;;;;;;;;0.00;0.00;;;;;24.50;45.94;100498.16;5121692;27;45345;-54
2022/06/19 09:47:22;;;;;;;;;0.00;0.00;;;;;24.52;46.16;100504.22;5104307;27;45440;-52
2022/06/19 09:49:52;;;;;;;;;1.25;0.00;;;;;24.55;45.76;100504.00;5096691;27;45398;-50
2022/06/19 09:52:44;;;;;;;;;2.00;0.00;;;;;24.57;45.82;100510.88;5108378;27;45445;-51
2022/06/19 09:55:25;;;;;;;;;0.00;0.00;;;;;24.62;45.93;100511.31;5110891;27;45448;-53
2022/06/19 09:58:05;;;;;;;;;0.25;0.25;;;;;24.66;46.04;100503.84;5117088;27;45546;-51
2022/06/19 10:00:33;;;;;;;;;1.00;0.00;;;;;24.71;45.69;100503.44;5114238;27;45560;-53
2022/06/19 10:03:12;;;;;;;;;0.00;0.00;;;;;24.75;45.85;100505.69;5111003;27;45276;-52
2022/06/19 10:05:44;;;;;;;;;0.25;0.25;;;;;24.81;45.70;100496.28;5107716;27;45452;-53
2022/06/19 10:08:19;;;;;;;;;0.00;0.00;;;;;24.88;45.60;100492.06;5110982;27;45426;-54
2022/06/19 10:10:50;;;;;;;;;0.00;0.00;;;;;24.95;45.44;100484.31;5111077;27;45376;-53
2022/06/19 10:13:37;;;;;;;;;0.00;0.00;;;;;25.02;45.44;100480.09;5111956;27;45432;-52
2022/06/19 10:16:12;;;;;;;;;1.00;0.00;;;;;25.09;45.30;100483.03;5111415;27;45566;-50
2022/06/19 10:18:40;;;;;;;;;0.00;0.00;;;;;25.14;45.14;100470.06;5105426;27;45502;-51
2022/06/19 10:21:11;;;;;;;;;0.00;0.00;;;;;25.20;45.18;100480.22;5109511;27;45426;-54
2022/06/19 10:23:45;;;;;;;;;1.00;0.00;;;;;25.25;44.99;100479.78;5106418;27;45374;-53
2022/06/19 10:26:37;;;;;;;;;1.00;0.00;;;;;25.30;44.98;100469.50;5109083;27;45636;-51
2022/06/19 10:29:30;;;;;;;;;0.00;0.00;;;;;25.30;44.88;100450.75;5111810;27;45306;-52
2022/06/19 10:31:56;;;;;;;;;1.00;1.00;;;;;25.38;44.80;100450.88;5107507;27;45262;-51
2022/06/19 10:34:51;;;;;;;;;2.00;0.00;;;;;25.41;44.97;100450.59;5118548;27;45825;-53
2022/06/19 10:37:36;;;;;;;;;0.00;0.00;;;;;25.44;44.75;100444.09;5104674;27;45534;-50
2022/06/19 10:40:02;;;;;;;;;0.00;0.00;;;;;25.49;44.64;100452.56;5111775;27;46023;-53
2022/06/19 10:42:49;;;;;;;;;2.00;0.00;;;;;25.51;45.10;100445.22;5115755;27;45359;-53
2022/06/19 10:45:30;;;;;;;;;0.50;0.00;;;;;25.54;44.50;100453.78;5115143;27;45482;-54
2022/06/19 10:48:28;;;;;;;;;0.00;0.00;;;;;25.57;44.41;100452.69;5103991;27;45629;-54
2022/06/19 10:51:13;;;;;;;;;0.00;0.00;;;;;25.60;44.70;100463.09;5101188;27;48009;-54
2022/06/19 10:53:54;;;;;;;;;0.25;0.25;;;;;25.64;44.60;100452.91;5102132;27;45471;-53
2022/06/19 10:56:23;;;;;;;;;0.00;0.00;;;;;25.68;44.63;100462.38;5106980;27;45467;-52
2022/06/19 10:58:49;;;;;;;;;0.50;0.50;;;;;25.69;44.63;100461.38;5115178;27;45534;-51
2022/06/19 11:04:10;;;;;;;;;0.00;0.00;;;;;25.74;44.64;100454.56;5113543;27;45670;-50
2022/06/19 11:07:08;;;;;;;;;0.75;0.00;;;;;25.77;44.22;100456.97;5105645;27;45450;-53
2022/06/19 11:09:49;;;;;;;;;1.00;0.00;;;;;25.77;44.17;100456.97;5109804;27;45353;-50
2022/06/19 11:12:20;;;;;;;;;0.00;0.00;;;;;25.84;44.21;100459.06;5104414;27;45709;-52
2022/06/19 11:15:11;;;;;;;;;3.25;0.25;;;;;25.86;43.94;100457.09;5110796;27;45792;-51
2022/06/19 11:17:42;;;;;;;;;2.00;1.00;;;;;25.88;44.25;100460.44;5101812;27;45352;-52
2022/06/19 11:20:28;;;;;;;;;0.25;0.25;;;;;25.90;44.33;100464.66;5111106;27;45378;-49
2022/06/19 11:23:21;;;;;;;;;0.25;0.25;;;;;25.93;44.30;100471.59;5112247;27;46326;-51
2022/06/19 11:26:05;;;;;;;;;1.50;0.00;;;;;25.95;43.92;100477.66;5107736;27;45415;-53
2022/06/19 11:28:56;;;;;;;;;0.75;0.75;;;;;25.96;43.83;100465.97;5112826;27;45216;-53
2022/06/19 11:31:28;;;;;;;;;1.00;1.00;;;;;25.99;44.20;100456.75;5103282;27;45469;-53
2022/06/19 11:37:13;;;;;;;;;0.00;0.00;;;;;26.03;44.20;100445.59;5107889;27;45568;-50
2022/06/19 11:39:41;;;;;;;;;0.25;0.25;;;;;26.05;44.57;100443.63;5113566;27;45530;-53
2022/06/19 11:42:45;;;;;;;;;0.25;0.25;;;;;26.07;44.21;100455.03;5103556;27;45712;-51
2022/06/19 11:45:13;;;;;;;;;1.50;1.00;;;;;26.09;44.24;100445.00;5109159;27;45379;-51
2022/06/19 11:48:00;;;;;;;;;0.25;0.25;;;;;26.09;44.40;100430.75;5101584;27;45656;-50
2022/06/19 11:50:37;;;;;;;;;1.25;0.00;;;;;26.11;44.37;100437.63;5104511;27;45306;-53